createdAt,value
2017-11-20T00:00:13.208Z,5.80
2017-11-20T00:01:20.490Z,6.10
2017-11-20T00:02:27.673Z,6.40
2017-11-20T00:03:34.248Z,6.10
2017-11-20T00:04:41.054Z,6.20
2017-11-20T00:05:47.845Z,5.20
2017-11-20T00:06:54.817Z,6.60
2017-11-20T00:08:01.499Z,6.30
2017-11-20T00:09:08.356Z,6.00
2017-11-20T00:10:15.362Z,5.90
2017-11-20T00:11:22.238Z,5.70
2017-11-20T00:12:29.107Z,6.40
2017-11-20T00:13:36.037Z,6.40
2017-11-20T00:14:42.896Z,5.90
2017-11-20T00:15:49.732Z,5.80
2017-11-20T00:16:56.602Z,6.50
2017-11-20T00:18:03.427Z,5.60
2017-11-20T00:19:10.242Z,5.70
2017-11-20T00:20:17.070Z,5.90
2017-11-20T00:21:23.916Z,5.50
2017-11-20T00:22:30.727Z,6.70
2017-11-20T00:23:37.598Z,6.00
2017-11-20T00:24:44.382Z,6.10
2017-11-20T00:25:51.263Z,6.30
2017-11-20T00:26:58.033Z,6.10
2017-11-20T00:28:04.789Z,6.60
2017-11-20T00:29:11.650Z,6.90
2017-11-20T00:30:18.416Z,6.20
2017-11-20T00:31:25.290Z,6.80
2017-11-20T00:32:32.054Z,6.80
2017-11-20T00:33:38.725Z,6.30
2017-11-20T00:34:45.646Z,6.40
2017-11-20T00:35:52.555Z,6.90
2017-11-20T00:36:59.382Z,7.50
2017-11-20T00:38:06.358Z,7.10
2017-11-20T00:39:13.189Z,7.20
2017-11-20T00:40:20.047Z,7.20
2017-11-20T00:41:26.895Z,7.00
2017-11-20T00:42:33.764Z,6.70
2017-11-20T00:43:40.889Z,8.00
2017-11-20T00:44:47.686Z,8.90
2017-11-20T00:45:54.574Z,7.40
2017-11-20T00:47:01.380Z,7.60
2017-11-20T00:48:08.301Z,7.90
2017-11-20T00:49:15.097Z,8.30
2017-11-20T00:50:21.893Z,7.60
2017-11-20T00:51:28.822Z,7.30
2017-11-20T00:52:35.962Z,8.10
2017-11-20T00:53:42.843Z,8.40
2017-11-20T00:54:49.692Z,7.10
2017-11-20T00:55:56.602Z,8.90
2017-11-20T00:57:03.665Z,7.80
2017-11-20T00:58:10.582Z,8.90
2017-11-20T00:59:17.491Z,8.10
2017-11-20T01:00:24.343Z,7.80
2017-11-20T01:01:31.294Z,7.90
2017-11-20T01:02:38.250Z,7.80
2017-11-20T01:03:45.199Z,8.20
2017-11-20T01:04:52.283Z,7.70
2017-11-20T01:05:59.375Z,8.30
2017-11-20T01:07:06.314Z,7.30
2017-11-20T01:08:13.065Z,7.70
2017-11-20T01:09:19.863Z,8.10
2017-11-20T01:10:26.675Z,9.00
2017-11-20T01:11:34.270Z,8.60
2017-11-20T01:12:40.656Z,7.50
2017-11-20T01:13:47.478Z,8.90
2017-11-20T01:14:54.413Z,7.30
2017-11-20T01:16:01.327Z,7.40
2017-11-20T01:17:08.078Z,8.40
2017-11-20T01:18:14.919Z,8.10
2017-11-20T01:19:21.667Z,7.40
2017-11-20T01:20:28.576Z,8.00
2017-11-20T01:21:35.489Z,8.40
2017-11-20T01:22:42.450Z,7.90
2017-11-20T01:23:49.411Z,8.50
2017-11-20T01:24:56.122Z,7.20
2017-11-20T01:26:03.158Z,6.70
2017-11-20T01:27:10.015Z,7.10
2017-11-20T01:28:17.052Z,8.70
2017-11-20T01:29:23.883Z,7.60
2017-11-20T01:30:30.780Z,8.00
2017-11-20T01:31:37.796Z,8.20
2017-11-20T01:32:44.704Z,8.20
2017-11-20T01:33:51.510Z,7.40
2017-11-20T01:34:58.417Z,7.50
2017-11-20T01:36:05.299Z,7.80
2017-11-20T01:37:12.279Z,8.70
2017-11-20T01:38:19.169Z,8.30
2017-11-20T01:39:26.078Z,8.00
2017-11-20T01:40:33.064Z,8.50
2017-11-20T01:41:40.010Z,8.50
2017-11-20T01:42:46.867Z,8.90
2017-11-20T01:43:53.866Z,8.30
2017-11-20T01:45:00.833Z,8.50
2017-11-20T01:46:07.735Z,8.40
2017-11-20T01:47:14.569Z,9.30
2017-11-20T01:48:21.599Z,7.50
2017-11-20T01:49:28.362Z,9.10
2017-11-20T01:50:35.163Z,9.20
2017-11-20T01:51:42.018Z,8.30
2017-11-20T01:52:48.922Z,8.60
2017-11-20T01:53:55.720Z,9.00
2017-11-20T01:55:02.661Z,8.40
2017-11-20T01:56:09.763Z,10.40
2017-11-20T01:57:16.832Z,9.50
2017-11-20T01:58:23.779Z,8.40
2017-11-20T01:59:30.884Z,8.70
2017-11-20T02:00:37.883Z,9.70
2017-11-20T02:01:44.931Z,8.90
2017-11-20T02:02:51.979Z,9.20
2017-11-20T02:03:58.964Z,9.10
2017-11-20T02:05:06.028Z,8.70
2017-11-20T02:06:12.790Z,7.70
2017-11-20T02:07:19.809Z,9.30
2017-11-20T02:08:26.778Z,8.10
2017-11-20T02:09:33.775Z,8.60
2017-11-20T02:10:40.730Z,9.20
2017-11-20T02:11:47.646Z,9.40
2017-11-20T02:12:54.718Z,9.20
2017-11-20T02:14:01.752Z,9.50
2017-11-20T02:15:08.747Z,8.60
2017-11-20T02:16:15.754Z,8.90
2017-11-20T02:17:22.697Z,9.30
2017-11-20T02:18:29.589Z,9.90
2017-11-20T02:19:36.521Z,10.60
2017-11-20T02:20:43.519Z,10.10
2017-11-20T02:21:50.587Z,9.40
2017-11-20T02:22:57.502Z,9.50
2017-11-20T02:24:04.540Z,10.00
2017-11-20T02:25:11.380Z,10.00
2017-11-20T02:26:18.490Z,9.80
2017-11-20T02:27:25.481Z,9.60
2017-11-20T02:28:32.506Z,10.20
2017-11-20T02:29:39.573Z,10.60
2017-11-20T02:30:46.437Z,9.80
2017-11-20T02:31:53.600Z,10.70
2017-11-20T02:33:00.530Z,10.80
2017-11-20T02:34:07.207Z,11.00
2017-11-20T02:35:14.146Z,11.10
2017-11-20T02:36:21.086Z,11.90
2017-11-20T02:37:28.471Z,11.00
2017-11-20T02:38:35.127Z,11.60
2017-11-20T02:39:42.324Z,11.80
2017-11-20T02:40:49.389Z,11.30
2017-11-20T02:41:56.507Z,11.40
2017-11-20T02:43:03.294Z,11.80
2017-11-20T02:44:10.316Z,12.30
2017-11-20T02:45:17.431Z,12.00
2017-11-20T02:46:24.445Z,12.10
2017-11-20T02:47:31.427Z,12.30
2017-11-20T02:48:38.489Z,12.30
2017-11-20T02:49:45.454Z,11.90
2017-11-20T02:50:52.505Z,12.20
2017-11-20T02:51:59.478Z,12.20
2017-11-20T02:53:06.465Z,12.00
2017-11-20T02:54:13.519Z,11.60
2017-11-20T02:55:20.350Z,12.10
2017-11-20T02:56:27.478Z,13.10
2017-11-20T02:57:34.039Z,12.70
2017-11-20T02:58:40.958Z,13.20
2017-11-20T02:59:47.834Z,12.10
2017-11-20T03:00:54.694Z,13.10
2017-11-20T03:02:01.815Z,12.40
2017-11-20T03:03:08.791Z,13.80
2017-11-20T03:04:15.638Z,12.40
2017-11-20T03:05:22.621Z,14.20
2017-11-20T03:06:29.330Z,15.20
2017-11-20T03:07:36.039Z,13.50
2017-11-20T03:08:42.874Z,13.30
2017-11-20T03:09:49.799Z,14.20
2017-11-20T03:10:56.854Z,13.60
2017-11-20T03:12:03.776Z,13.20
2017-11-20T03:13:10.794Z,14.30
2017-11-20T03:14:17.706Z,14.50
2017-11-20T03:15:24.730Z,14.20
2017-11-20T03:16:31.575Z,12.90
2017-11-20T03:17:39.526Z,13.20
2017-11-20T03:18:45.368Z,13.40
2017-11-20T03:19:52.202Z,13.10
2017-11-20T03:20:59.363Z,12.60
2017-11-20T03:22:06.229Z,13.20
2017-11-20T03:23:13.161Z,13.30
2017-11-20T03:24:20.070Z,12.50
2017-11-20T03:25:26.894Z,11.90
2017-11-20T03:26:33.740Z,13.60
2017-11-20T03:27:40.690Z,14.30
2017-11-20T03:28:47.628Z,13.10
2017-11-20T03:29:54.490Z,12.10
2017-11-20T03:31:01.480Z,14.70
2017-11-20T03:32:08.584Z,12.80
2017-11-20T03:33:15.552Z,13.50
2017-11-20T03:34:22.574Z,13.40
2017-11-20T03:35:29.618Z,12.80
2017-11-20T03:36:36.462Z,13.90
2017-11-20T03:37:43.476Z,13.10
2017-11-20T03:38:50.423Z,13.70
2017-11-20T03:39:57.220Z,15.30
2017-11-20T03:41:04.122Z,14.30
2017-11-20T03:42:11.087Z,14.20
2017-11-20T03:43:18.094Z,13.20
2017-11-20T03:44:25.007Z,13.30
2017-11-20T03:45:32.094Z,13.30
2017-11-20T03:46:39.054Z,13.90
2017-11-20T03:47:46.076Z,13.50
2017-11-20T03:48:52.871Z,14.10
2017-11-20T03:49:59.965Z,14.10
2017-11-20T03:51:07.030Z,14.10
2017-11-20T03:52:14.014Z,13.60
2017-11-20T03:53:21.240Z,15.70
2017-11-20T03:54:27.647Z,14.90
2017-11-20T03:55:34.694Z,13.20
2017-11-20T03:56:41.637Z,13.70
2017-11-20T03:57:48.658Z,13.60
2017-11-20T03:58:55.553Z,13.30
2017-11-20T04:00:02.422Z,13.00
2017-11-20T04:01:09.174Z,12.50
2017-11-20T04:02:16.007Z,12.50
2017-11-20T04:03:22.793Z,12.50
2017-11-20T04:04:29.604Z,11.20
2017-11-20T04:05:36.523Z,12.10
2017-11-20T04:06:43.330Z,11.40
2017-11-20T04:07:50.128Z,11.80
2017-11-20T04:08:56.971Z,11.70
2017-11-20T04:10:03.777Z,12.20
2017-11-20T04:11:10.525Z,12.50
2017-11-20T04:12:17.439Z,12.40
2017-11-20T04:13:24.374Z,10.40
2017-11-20T04:14:31.150Z,12.30
2017-11-20T04:15:38.123Z,11.20
2017-11-20T04:16:45.037Z,11.70
2017-11-20T04:17:51.882Z,11.80
2017-11-20T04:18:58.678Z,11.70
2017-11-20T04:20:05.609Z,12.20
2017-11-20T04:21:12.468Z,11.90
2017-11-20T04:22:19.502Z,13.00
2017-11-20T04:23:26.344Z,12.20
2017-11-20T04:24:33.333Z,12.90
2017-11-20T04:25:40.211Z,13.50
2017-11-20T04:26:47.047Z,11.80
2017-11-20T04:27:53.813Z,12.80
2017-11-20T04:29:00.620Z,12.50
2017-11-20T04:30:07.707Z,12.60
2017-11-20T04:31:14.810Z,12.70
2017-11-20T04:32:21.762Z,12.10
2017-11-20T04:33:28.822Z,13.00
2017-11-20T04:34:35.763Z,12.70
2017-11-20T04:35:42.504Z,13.00
2017-11-20T04:36:49.436Z,13.90
2017-11-20T04:37:56.714Z,13.00
2017-11-20T04:39:03.742Z,13.10
2017-11-20T04:40:10.680Z,12.30
2017-11-20T04:41:17.519Z,13.40
2017-11-20T04:42:24.345Z,12.90
2017-11-20T04:43:31.062Z,12.30
2017-11-20T04:44:38.111Z,12.50
2017-11-20T04:45:45.007Z,13.30
2017-11-20T04:46:52.226Z,13.20
2017-11-20T04:47:59.089Z,12.40
2017-11-20T04:49:06.043Z,13.10
2017-11-20T04:50:12.907Z,11.60
2017-11-20T04:51:20.195Z,13.90
2017-11-20T04:52:27.142Z,13.60
2017-11-20T04:53:34.084Z,13.40
2017-11-20T04:54:40.942Z,13.00
2017-11-20T04:55:47.841Z,12.40
2017-11-20T04:56:54.882Z,12.20
2017-11-20T04:58:01.750Z,12.90
2017-11-20T04:59:08.570Z,12.70
2017-11-20T05:00:15.335Z,12.60
2017-11-20T05:01:22.403Z,12.70
2017-11-20T05:02:29.306Z,12.20
2017-11-20T05:03:36.164Z,13.20
2017-11-20T05:04:42.922Z,13.20
2017-11-20T05:05:49.769Z,12.80
2017-11-20T05:06:56.517Z,11.80
2017-11-20T05:08:03.491Z,12.60
2017-11-20T05:09:10.476Z,11.00
2017-11-20T05:10:17.295Z,12.50
2017-11-20T05:11:25.420Z,11.90
2017-11-20T05:12:31.449Z,11.20
2017-11-20T05:13:38.426Z,11.70
2017-11-20T05:14:45.134Z,10.60
2017-11-20T05:15:52.037Z,10.90
2017-11-20T05:16:59.072Z,10.90
2017-11-20T05:18:06.072Z,10.80
2017-11-20T05:19:12.889Z,9.90
2017-11-20T05:20:20.094Z,10.80
2017-11-20T05:21:27.174Z,10.50
2017-11-20T05:22:34.254Z,10.90
2017-11-20T05:23:41.107Z,10.60
2017-11-20T05:24:47.998Z,10.10
2017-11-20T05:25:54.724Z,11.00
2017-11-20T05:27:01.598Z,10.50
2017-11-20T05:28:08.432Z,10.10
2017-11-20T05:29:15.431Z,11.10
2017-11-20T05:30:22.168Z,11.00
2017-11-20T05:31:29.000Z,10.80
2017-11-20T05:32:35.878Z,10.90
2017-11-20T05:33:42.662Z,10.50
2017-11-20T05:34:49.378Z,11.00
2017-11-20T05:35:56.354Z,10.30
2017-11-20T05:37:03.158Z,10.60
2017-11-20T05:38:10.057Z,10.30
2017-11-20T05:39:16.834Z,11.10
2017-11-20T05:40:23.674Z,10.80
2017-11-20T05:41:30.631Z,11.00
2017-11-20T05:42:37.550Z,10.00
2017-11-20T05:43:44.427Z,10.50
2017-11-20T05:44:51.502Z,10.60
2017-11-20T05:45:58.338Z,9.50
2017-11-20T05:47:05.225Z,10.20
2017-11-20T05:48:12.260Z,10.40
2017-11-20T05:49:19.266Z,10.20
2017-11-20T05:50:26.012Z,10.60
2017-11-20T05:51:32.908Z,10.20
2017-11-20T05:52:39.782Z,10.30
2017-11-20T05:53:46.784Z,10.10
2017-11-20T05:54:53.707Z,11.20
2017-11-20T05:56:00.521Z,10.00
2017-11-20T05:57:07.195Z,10.20
2017-11-20T05:58:14.047Z,9.80
2017-11-20T05:59:20.851Z,11.00
2017-11-20T06:00:27.854Z,15.60
2017-11-20T06:01:34.861Z,11.60
2017-11-20T06:02:41.855Z,11.40
2017-11-20T06:03:48.833Z,10.90
2017-11-20T06:04:56.030Z,9.90
2017-11-20T06:06:02.866Z,10.70
2017-11-20T06:07:10.144Z,10.00
2017-11-20T06:08:16.850Z,10.50
2017-11-20T06:09:23.763Z,11.10
2017-11-20T06:10:30.766Z,11.30
2017-11-20T06:11:37.993Z,10.70
2017-11-20T06:12:44.607Z,9.40
2017-11-20T06:13:51.615Z,10.00
2017-11-20T06:14:58.577Z,10.40
2017-11-20T06:16:05.315Z,10.70
2017-11-20T06:17:12.207Z,11.40
2017-11-20T06:18:19.235Z,11.20
2017-11-20T06:19:25.958Z,10.30
2017-11-20T06:20:32.557Z,10.50
2017-11-20T06:21:39.695Z,10.40
2017-11-20T06:22:46.298Z,10.10
2017-11-20T06:23:53.387Z,11.30
2017-11-20T06:25:00.425Z,11.20
2017-11-20T06:26:07.333Z,11.20
2017-11-20T06:27:14.166Z,10.00
2017-11-20T06:28:21.160Z,10.90
2017-11-20T06:29:27.922Z,10.90
2017-11-20T06:30:34.818Z,11.00
2017-11-20T06:31:41.863Z,10.50
2017-11-20T06:32:48.888Z,11.30
2017-11-20T06:33:55.785Z,11.30
2017-11-20T06:35:02.527Z,10.40
2017-11-20T06:36:09.409Z,11.00
2017-11-20T06:37:16.298Z,11.10
2017-11-20T06:38:23.107Z,10.60
2017-11-20T06:39:30.070Z,10.60
2017-11-20T06:40:36.929Z,11.30
2017-11-20T06:41:43.959Z,10.90
2017-11-20T06:42:50.946Z,10.70
2017-11-20T06:43:57.919Z,11.10
2017-11-20T06:45:05.196Z,11.20
2017-11-20T06:46:11.610Z,10.60
2017-11-20T06:47:18.706Z,10.70
2017-11-20T06:48:25.802Z,10.50
2017-11-20T06:49:32.908Z,10.40
2017-11-20T06:50:39.894Z,9.90
2017-11-20T06:51:46.821Z,10.70
2017-11-20T06:52:53.694Z,10.10
2017-11-20T06:54:00.722Z,12.80
2017-11-20T06:55:07.739Z,17.60
2017-11-20T06:56:14.591Z,14.20
2017-11-20T06:57:21.579Z,16.60
2017-11-20T06:58:28.602Z,14.40
2017-11-20T06:59:35.282Z,16.80
2017-11-20T07:00:42.312Z,16.30
2017-11-20T07:01:49.378Z,16.80
2017-11-20T07:02:56.370Z,15.20
2017-11-20T07:04:03.385Z,12.70
2017-11-20T07:05:10.384Z,11.50
2017-11-20T07:06:17.454Z,11.00
2017-11-20T07:07:24.483Z,11.20
2017-11-20T07:08:31.589Z,10.80
2017-11-20T07:09:38.381Z,10.60
2017-11-20T07:10:45.510Z,11.00
2017-11-20T07:11:52.541Z,11.40
2017-11-20T07:12:59.641Z,12.20
2017-11-20T07:14:06.773Z,12.00
2017-11-20T07:15:13.807Z,12.40
2017-11-20T07:16:20.826Z,12.70
2017-11-20T07:17:27.972Z,12.80
2017-11-20T07:18:35.153Z,12.90
2017-11-20T07:19:42.095Z,13.00
2017-11-20T07:20:49.266Z,11.30
2017-11-20T07:21:56.453Z,12.80
2017-11-20T07:23:03.446Z,12.90
2017-11-20T07:24:10.507Z,12.70
2017-11-20T07:25:17.503Z,12.10
2017-11-20T07:26:24.615Z,12.70
2017-11-20T07:27:37.384Z,11.50
2017-11-20T07:28:44.550Z,13.40
2017-11-20T07:29:51.066Z,12.80
2017-11-20T07:30:58.264Z,11.90
2017-11-20T07:32:05.375Z,13.70
2017-11-20T07:33:12.516Z,13.30
2017-11-20T07:34:19.059Z,12.00
2017-11-20T07:35:26.223Z,12.70
2017-11-20T07:36:32.887Z,13.20
2017-11-20T07:37:47.590Z,12.30
2017-11-20T07:38:54.761Z,12.50
2017-11-20T07:40:01.511Z,12.90
2017-11-20T07:41:08.673Z,12.60
2017-11-20T07:42:15.643Z,13.40
2017-11-20T07:43:22.672Z,13.30
2017-11-20T07:44:29.763Z,13.30
2017-11-20T07:45:36.695Z,12.10
2017-11-20T07:46:43.702Z,13.50
2017-11-20T07:47:50.759Z,12.10
2017-11-20T07:48:57.746Z,12.60
2017-11-20T07:50:04.868Z,12.40
2017-11-20T07:51:11.879Z,12.50
2017-11-20T07:52:18.782Z,13.50
2017-11-20T07:53:25.749Z,12.40
2017-11-20T07:54:32.566Z,13.40
2017-11-20T07:55:39.480Z,13.10
2017-11-20T07:56:46.429Z,13.40
2017-11-20T07:57:53.196Z,12.70
2017-11-20T07:59:00.403Z,12.90
2017-11-20T08:00:07.453Z,12.60
2017-11-20T08:01:14.570Z,13.40
2017-11-20T08:02:21.376Z,12.30
2017-11-20T08:03:28.207Z,12.60
2017-11-20T08:04:35.438Z,12.30
2017-11-20T08:05:42.307Z,11.70
2017-11-20T08:06:49.219Z,12.70
2017-11-20T08:07:56.357Z,13.00
2017-11-20T08:09:03.355Z,12.70
2017-11-20T08:10:10.595Z,12.80
2017-11-20T08:11:16.998Z,11.90
2017-11-20T08:12:24.086Z,12.50
2017-11-20T08:13:30.709Z,12.70
2017-11-20T08:14:38.311Z,12.60
2017-11-20T08:15:44.722Z,13.00
2017-11-20T08:16:51.589Z,13.00
2017-11-20T08:17:58.524Z,13.20
2017-11-20T08:19:05.193Z,13.50
2017-11-20T08:20:12.117Z,13.10
2017-11-20T08:21:19.082Z,12.60
2017-11-20T08:22:26.073Z,12.40
2017-11-20T08:23:33.096Z,12.40
2017-11-20T08:24:40.007Z,12.40
2017-11-20T08:25:46.859Z,12.90
2017-11-20T08:26:53.875Z,13.10
2017-11-20T08:28:00.709Z,13.00
2017-11-20T08:29:07.535Z,12.90
2017-11-20T08:30:14.277Z,12.70
2017-11-20T08:31:21.288Z,12.20
2017-11-20T08:32:28.597Z,12.80
2017-11-20T08:33:35.105Z,12.70
2017-11-20T08:34:41.930Z,13.60
2017-11-20T08:35:48.707Z,13.30
2017-11-20T08:36:55.397Z,12.40
2017-11-20T08:38:02.414Z,12.00
2017-11-20T08:39:09.325Z,12.50
2017-11-20T08:40:16.146Z,12.30
2017-11-20T08:41:23.196Z,12.80
2017-11-20T08:42:30.024Z,12.20
2017-11-20T08:43:37.129Z,11.10
2017-11-20T08:44:44.102Z,11.80
2017-11-20T08:45:51.087Z,12.80
2017-11-20T08:46:58.018Z,11.70
2017-11-20T08:48:04.918Z,11.50
2017-11-20T08:49:11.883Z,11.10
2017-11-20T08:50:18.758Z,10.20
2017-11-20T08:51:25.690Z,10.80
2017-11-20T08:52:32.542Z,10.70
2017-11-20T08:53:39.402Z,10.90
2017-11-20T08:54:46.299Z,11.40
2017-11-20T08:55:53.067Z,11.30
2017-11-20T08:56:59.913Z,11.00
2017-11-20T08:58:06.846Z,10.50
2017-11-20T08:59:13.894Z,10.40
2017-11-20T09:00:20.842Z,10.00
2017-11-20T09:01:27.619Z,10.60
2017-11-20T09:02:34.683Z,10.40
2017-11-20T09:03:41.127Z,10.10
2017-11-20T09:04:48.196Z,10.30
2017-11-20T09:05:55.274Z,10.60
2017-11-20T09:07:02.267Z,10.40
2017-11-20T09:08:09.351Z,10.80
2017-11-20T09:09:16.111Z,10.70
2017-11-20T09:10:23.246Z,10.30
2017-11-20T09:11:30.138Z,11.00
2017-11-20T09:12:37.093Z,11.20
2017-11-20T09:13:44.219Z,11.00
2017-11-20T09:14:51.205Z,10.90
2017-11-20T09:15:58.195Z,10.90
2017-11-20T09:17:04.886Z,10.80
2017-11-20T09:18:11.967Z,10.00
2017-11-20T09:19:19.049Z,10.20
2017-11-20T09:20:26.098Z,9.70
2017-11-20T09:21:32.919Z,10.00
2017-11-20T09:22:39.957Z,9.50
2017-11-20T09:23:46.975Z,10.00
2017-11-20T09:24:53.734Z,10.70
2017-11-20T09:26:00.890Z,10.00
2017-11-20T09:27:07.558Z,9.90
2017-11-20T09:28:14.726Z,9.80
2017-11-20T09:29:22.673Z,9.50
2017-11-20T09:30:28.637Z,10.50
2017-11-20T09:31:35.730Z,9.70
2017-11-20T09:32:42.801Z,10.50
2017-11-20T09:33:49.719Z,9.70
2017-11-20T09:34:56.568Z,9.70
2017-11-20T09:36:03.456Z,10.10
2017-11-20T09:37:10.494Z,10.20
2017-11-20T09:38:17.557Z,9.50
2017-11-20T09:39:24.616Z,10.50
2017-11-20T09:40:31.567Z,9.90
2017-11-20T09:41:38.598Z,9.80
2017-11-20T09:42:45.738Z,10.80
2017-11-20T09:43:52.893Z,10.20
2017-11-20T09:44:59.701Z,9.70
2017-11-20T09:46:06.493Z,9.60
2017-11-20T09:47:13.474Z,9.80
2017-11-20T09:48:20.531Z,10.00
2017-11-20T09:49:27.475Z,10.00
2017-11-20T09:50:34.387Z,10.70
2017-11-20T09:51:41.255Z,10.60
2017-11-20T09:52:48.313Z,9.70
2017-11-20T09:53:55.335Z,10.10
2017-11-20T09:55:02.403Z,9.50
2017-11-20T09:56:09.374Z,10.30
2017-11-20T09:57:16.524Z,11.40
2017-11-20T09:58:23.587Z,10.30
2017-11-20T09:59:30.554Z,10.10
2017-11-20T10:00:37.531Z,9.40
2017-11-20T10:01:44.367Z,10.50
2017-11-20T10:02:51.394Z,9.40
2017-11-20T10:03:58.475Z,9.50
2017-11-20T10:05:05.507Z,10.00
2017-11-20T10:06:12.638Z,10.10
2017-11-20T10:07:19.782Z,10.60
2017-11-20T10:08:26.887Z,10.00
2017-11-20T10:09:33.913Z,10.00
2017-11-20T10:10:41.114Z,9.50
2017-11-20T10:11:47.809Z,10.50
2017-11-20T10:12:54.742Z,10.40
2017-11-20T10:14:01.703Z,9.10
2017-11-20T10:15:08.774Z,10.30
2017-11-20T10:16:15.955Z,10.30
2017-11-20T10:17:22.984Z,10.20
2017-11-20T10:18:29.974Z,9.80
2017-11-20T10:19:36.901Z,10.20
2017-11-20T10:20:44.010Z,9.60
2017-11-20T10:21:51.095Z,9.60
2017-11-20T10:22:58.208Z,9.90
2017-11-20T10:24:05.171Z,8.80
2017-11-20T10:25:12.385Z,9.90
2017-11-20T10:26:18.793Z,9.40
2017-11-20T10:27:25.804Z,10.30
2017-11-20T10:28:32.830Z,9.50
2017-11-20T10:29:39.630Z,9.50
2017-11-20T10:30:46.750Z,9.50
2017-11-20T10:31:53.910Z,10.00
2017-11-20T10:33:01.201Z,8.80
2017-11-20T10:34:07.888Z,9.30
2017-11-20T10:35:14.869Z,10.00
2017-11-20T10:36:22.198Z,9.40
2017-11-20T10:37:28.687Z,8.60
2017-11-20T10:38:35.619Z,8.50
2017-11-20T10:39:42.408Z,9.50
2017-11-20T10:40:49.758Z,9.70
2017-11-20T10:41:56.355Z,9.50
2017-11-20T10:43:03.462Z,9.60
2017-11-20T10:44:10.496Z,9.20
2017-11-20T10:45:17.550Z,10.00
2017-11-20T10:46:24.786Z,9.40
2017-11-20T10:47:31.846Z,9.10
2017-11-20T10:48:38.890Z,8.90
2017-11-20T10:49:45.894Z,9.30
2017-11-20T10:50:52.797Z,9.80
2017-11-20T10:51:59.591Z,9.50
2017-11-20T10:53:06.819Z,8.80
2017-11-20T10:54:14.628Z,9.00
2017-11-20T10:55:20.579Z,9.10
2017-11-20T10:56:27.228Z,8.90
2017-11-20T10:57:34.314Z,8.90
2017-11-20T10:58:41.276Z,9.40
2017-11-20T10:59:48.307Z,8.70
2017-11-20T11:00:54.986Z,9.20
2017-11-20T11:02:01.901Z,9.60
2017-11-20T11:03:08.544Z,8.80
2017-11-20T11:04:15.138Z,9.60
2017-11-20T11:05:22.220Z,9.50
2017-11-20T11:06:29.299Z,9.00
2017-11-20T11:07:36.441Z,9.30
2017-11-20T11:08:42.965Z,9.30
2017-11-20T11:09:50.295Z,9.40
2017-11-20T11:10:57.049Z,8.70
2017-11-20T11:12:03.945Z,9.90
2017-11-20T11:13:11.157Z,9.50
2017-11-20T11:14:18.120Z,9.40
2017-11-20T11:15:24.500Z,9.60
2017-11-20T11:16:31.574Z,9.30
2017-11-20T11:17:38.680Z,10.20
2017-11-20T11:18:45.612Z,9.20
2017-11-20T11:19:52.531Z,8.90
2017-11-20T11:21:00.116Z,8.90
2017-11-20T11:22:06.369Z,8.90
2017-11-20T11:23:13.372Z,9.30
2017-11-20T11:24:20.352Z,10.00
2017-11-20T11:25:27.453Z,8.90
2017-11-20T11:26:34.533Z,9.80
2017-11-20T11:27:41.572Z,10.00
2017-11-20T11:28:48.509Z,8.70
2017-11-20T11:29:55.644Z,8.40
2017-11-20T11:31:02.801Z,9.10
2017-11-20T11:32:09.965Z,10.30
2017-11-20T11:33:17.006Z,9.70
2017-11-20T11:34:24.007Z,9.80
2017-11-20T11:35:31.014Z,10.30
2017-11-20T11:36:37.869Z,9.10
2017-11-20T11:37:45.102Z,9.40
2017-11-20T11:38:52.174Z,9.10
2017-11-20T11:39:59.129Z,9.50
2017-11-20T11:41:06.183Z,9.30
2017-11-20T11:42:12.958Z,9.40
2017-11-20T11:43:19.881Z,8.70
2017-11-20T11:44:26.985Z,11.20
2017-11-20T11:45:34.085Z,10.00
2017-11-20T11:46:41.765Z,10.00
2017-11-20T11:47:48.475Z,8.90
2017-11-20T11:48:55.518Z,10.10
2017-11-20T11:50:02.650Z,9.70
2017-11-20T11:51:09.642Z,9.70
2017-11-20T11:52:16.573Z,10.10
2017-11-20T11:53:23.578Z,9.70
2017-11-20T11:54:30.497Z,9.30
2017-11-20T11:55:37.479Z,9.70
2017-11-20T11:56:44.591Z,9.90
2017-11-20T11:57:51.642Z,9.20
2017-11-20T11:58:58.800Z,8.90
2017-11-20T12:00:05.851Z,10.00
2017-11-20T12:01:13.148Z,10.10
2017-11-20T12:02:19.655Z,9.00
2017-11-20T12:03:26.614Z,8.50
2017-11-20T12:04:33.721Z,9.40
2017-11-20T12:05:40.458Z,9.10
2017-11-20T12:06:47.334Z,9.80
2017-11-20T12:07:54.351Z,9.30
2017-11-20T12:09:01.356Z,9.50
2017-11-20T12:10:08.233Z,9.80
2017-11-20T12:11:15.035Z,9.00
2017-11-20T12:12:21.989Z,9.50
2017-11-20T12:13:28.983Z,8.90
2017-11-20T12:14:35.966Z,9.60
2017-11-20T12:15:42.966Z,9.60
2017-11-20T12:16:52.656Z,9.70
2017-11-20T12:17:56.514Z,9.20
2017-11-20T12:19:03.835Z,9.40
2017-11-20T12:20:10.794Z,9.20
2017-11-20T12:21:17.840Z,8.90
2017-11-20T12:22:24.764Z,9.00
2017-11-20T12:23:31.725Z,8.80
2017-11-20T12:24:38.729Z,9.20
2017-11-20T12:25:45.562Z,9.70
2017-11-20T12:26:52.624Z,9.70
2017-11-20T12:27:59.550Z,9.30
2017-11-20T12:29:06.543Z,9.80
2017-11-20T12:30:13.474Z,9.50
2017-11-20T12:31:20.597Z,9.00
2017-11-20T12:32:27.451Z,9.10
2017-11-20T12:33:35.809Z,8.90
2017-11-20T12:34:41.119Z,9.30
2017-11-20T12:35:48.350Z,8.60
2017-11-20T12:36:55.077Z,9.10
2017-11-20T12:38:01.938Z,9.10
2017-11-20T12:39:09.006Z,8.70
2017-11-20T12:40:15.978Z,9.20
2017-11-20T12:41:22.939Z,9.30
2017-11-20T12:42:31.090Z,9.80
2017-11-20T12:43:38.185Z,8.40
2017-11-20T12:44:43.732Z,9.00
2017-11-20T12:52:21.343Z,9.40
2017-11-20T12:53:27.002Z,8.30
2017-11-20T12:56:47.687Z,8.40
2017-11-20T12:57:54.651Z,8.30
2017-11-20T12:59:01.716Z,9.80
2017-11-20T13:00:08.762Z,9.50
2017-11-20T13:01:15.670Z,9.60
2017-11-20T13:02:22.704Z,9.30
2017-11-20T13:03:29.377Z,7.90
2017-11-20T13:04:36.423Z,9.60
2017-11-20T13:05:43.324Z,9.20
2017-11-20T13:06:50.713Z,9.50
2017-11-20T13:07:57.618Z,8.90
2017-11-20T13:09:05.498Z,9.70
2017-11-20T13:10:11.843Z,9.10
2017-11-20T13:11:18.746Z,9.10
2017-11-20T13:12:25.538Z,8.90
2017-11-20T13:13:32.630Z,10.10
2017-11-20T13:14:39.554Z,9.20
2017-11-20T13:15:46.560Z,8.30
2017-11-20T13:16:53.524Z,9.70
2017-11-20T13:18:00.507Z,9.00
2017-11-20T13:19:07.608Z,8.50
2017-11-20T13:20:14.246Z,9.40
2017-11-20T13:21:21.315Z,9.00
2017-11-20T13:22:28.375Z,8.70
2017-11-20T13:23:35.586Z,8.70
2017-11-20T13:24:42.427Z,9.40
2017-11-20T13:25:49.497Z,9.10
2017-11-20T13:26:56.534Z,9.80
2017-11-20T13:28:03.575Z,8.60
2017-11-20T13:29:10.710Z,9.00
2017-11-20T13:30:17.874Z,9.20
2017-11-20T13:31:24.817Z,8.80
2017-11-20T13:32:31.847Z,8.20
2017-11-20T13:33:38.867Z,9.20
2017-11-20T13:34:45.839Z,8.80
2017-11-20T13:35:52.914Z,7.80
2017-11-20T13:37:00.074Z,8.20
2017-11-20T13:38:07.192Z,8.90
2017-11-20T13:39:13.848Z,8.40
2017-11-20T13:40:20.906Z,8.90
2017-11-20T13:41:27.985Z,9.00
2017-11-20T13:42:35.242Z,7.90
2017-11-20T13:43:41.865Z,8.80
2017-11-20T13:44:49.069Z,8.80
2017-11-20T13:45:55.775Z,8.60
2017-11-20T13:47:02.680Z,8.60
2017-11-20T13:48:09.844Z,8.90
2017-11-20T13:49:16.926Z,9.70
2017-11-20T13:50:23.548Z,8.30
2017-11-20T13:51:30.572Z,8.40
2017-11-20T13:52:37.577Z,8.70
2017-11-20T13:53:44.502Z,8.70
2017-11-20T13:54:51.971Z,9.00
2017-11-20T13:55:58.605Z,8.60
2017-11-20T13:57:04.998Z,9.10
2017-11-20T13:58:12.061Z,9.20
2017-11-20T13:59:18.918Z,8.70
2017-11-20T14:00:26.011Z,8.20
2017-11-20T14:01:32.718Z,8.90
2017-11-20T14:02:39.742Z,8.30
2017-11-20T14:03:46.641Z,8.20
2017-11-20T14:04:53.758Z,7.80
2017-11-20T14:06:00.341Z,8.80
2017-11-20T14:07:07.163Z,9.60
2017-11-20T14:08:14.113Z,7.80
2017-11-20T14:09:21.066Z,8.00
2017-11-20T14:10:28.068Z,9.10
2017-11-20T14:11:35.113Z,9.20
2017-11-20T14:12:42.097Z,9.10
2017-11-20T14:13:49.077Z,8.40
2017-11-20T14:14:55.998Z,8.70
2017-11-20T14:16:03.003Z,9.20
2017-11-20T14:17:10.034Z,8.00
2017-11-20T14:18:16.994Z,8.40
2017-11-20T14:19:23.975Z,7.70
2017-11-20T14:20:31.013Z,7.30
2017-11-20T14:21:38.167Z,9.50
2017-11-20T14:22:44.674Z,9.10
2017-11-20T14:23:51.610Z,7.70
2017-11-20T14:24:58.433Z,8.40
2017-11-20T14:26:05.332Z,8.60
2017-11-20T14:27:12.467Z,7.90
2017-11-20T14:28:19.672Z,8.50
2017-11-20T14:29:26.343Z,8.30
2017-11-20T14:30:33.517Z,8.50
2017-11-20T14:31:40.333Z,9.40
2017-11-20T14:32:47.480Z,8.80
2017-11-20T14:33:53.938Z,9.30
2017-11-20T14:35:01.046Z,8.10
2017-11-20T14:36:08.034Z,8.50
2017-11-20T14:37:15.152Z,7.70
2017-11-20T14:38:22.158Z,7.70
2017-11-20T14:39:29.095Z,7.80
2017-11-20T14:40:36.091Z,8.50
2017-11-20T14:41:43.006Z,7.10
2017-11-20T14:42:50.016Z,7.40
2017-11-20T14:43:56.937Z,7.30